Sylvania, Pennsylvania
Current Conditions -  °F | °C
As of 3:01 PM on Tuesday 21 Oct 2014 (Local Time) from KELM Reporting Station
Overcast Overcast  
Wind Chill: 55°   Ceiling: 3200
Heat Index: 55°   Visibility: 10mi
Dew Point: 49°   Wind: 0mph
Humidity: 80%   Direction: NA
Pressure: 29.85"   Gusts: NA
Location:  41.81°N, 76.86°W
Report Text: KELM 211901Z AUTO 00000KT 10SM SCT022 OVC032 13/09 A2985 RMK AO2 T01280094
Loading
Personal Weather Stations






























Interactive Weather Map
Tropical Storm Tracking
New forecast layout! Learn more

10-Day Weather Forecast

Advertisements
Track Severe Weather on mobile